Sign-in with your pilot id or email, or register

ICAO: EGLL Name / Country: Heathrow / United Kingdom
Latitude: 51.4775 Longitude: -0.461389
Total Arrivals:
Strict Standards: Non-static method AirportData::getarrflights() should not be called statically, assuming $this from incompatible context in /var/www/customers/vh-7192/web/home/phpvms/core/templates/airport_info.tpl on line 18
0
Total Departures:
Strict Standards: Non-static method AirportData::getdeptflights() should not be called statically, assuming $this from incompatible context in /var/www/customers/vh-7192/web/home/phpvms/core/templates/airport_info.tpl on line 21
1
Latest Arrival: (-) Latest Departure: MTA615 (EGLL-LHBP) Tibor Berces
Metar: EGLL 201720Z AUTO 04007KT 010V070 9999 NCD 23/10 Q1018 NOSIG
More info

Charts for EGLL


NOTAM


Warning: file_get_contents(http://api.vateud.net/notams/EGLL.json): failed to open stream: Redirection limit reached, aborting in /var/www/customers/vh-7192/web/home/phpvms/core/common/NOTAMSData.class.php on line 18

Warning: Invalid argument supplied for foreach() in /var/www/customers/vh-7192/web/home/phpvms/core/common/NOTAMSData.class.php on line 22

Heathrow